<?xml version="1.0" encoding="UTF-8" standalone="no" ?>
<gpx xmlns="http://www.topografix.com/GPX/1/1" xmlns:xsi="http://www.w3.org/2001/XMLSchema-instance" xsi:schemaLocation="http://www.topografix.com/GPX/1/1 http://www.topografix.com/GPX/1/1/gpx.xsd" version="1.1" creator="VisuGPX - https://www.visugpx.com">
  <metadata>
    <name>VRIANGE : 10,5 km</name>
    <desc><![CDATA[Randonnée pédestre effectuée le 10 octobre 2016.
L'indice IBP d'effort est de 39, (suivant l'échelle de la FFRP) un score compris entre 26 et 50 correspond au niveau 2 qualifié de "ASSEZ FACILE". La randonnée pédestre présente peu de difficulté physique. Ce niveau correspond aux promenades et petites randonnées.
]]></desc>
  </metadata>
  <trk>
    <name><![CDATA[OR-6669471--Vriange:Vriange 10,500 km]]></name>
    <trkseg>
      <trkpt lat="47.18039" lon="5.58207">
        <ele>241</ele>
        <time>2016-10-10T13:48:11Z</time>
      </trkpt>
      <trkpt lat="47.18044" lon="5.58227">
        <ele>241</ele>
        <time>2016-10-10T13:50:11Z</time>
      </trkpt>
      <trkpt lat="47.18063" lon="5.58265">
        <ele>242</ele>
        <time>2016-10-10T13:52:11Z</time>
      </trkpt>
      <trkpt lat="47.18087" lon="5.58314">
        <ele>242</ele>
        <time>2016-10-10T13:54:11Z</time>
      </trkpt>
      <trkpt lat="47.18137" lon="5.58223">
        <ele>246</ele>
        <time>2016-10-10T13:56:11Z</time>
      </trkpt>
      <trkpt lat="47.18184" lon="5.58118">
        <ele>248</ele>
        <time>2016-10-10T13:58:11Z</time>
      </trkpt>
      <trkpt lat="47.18244" lon="5.58066">
        <ele>249</ele>
        <time>2016-10-10T14:00:11Z</time>
      </trkpt>
      <trkpt lat="47.18277" lon="5.58034">
        <ele>251</ele>
        <time>2016-10-10T14:02:11Z</time>
      </trkpt>
      <trkpt lat="47.18308" lon="5.57986">
        <ele>255</ele>
        <time>2016-10-10T14:04:11Z</time>
      </trkpt>
      <trkpt lat="47.18334" lon="5.5793">
        <ele>261</ele>
        <time>2016-10-10T14:06:11Z</time>
      </trkpt>
      <trkpt lat="47.18347" lon="5.57906">
        <ele>264</ele>
        <time>2016-10-10T14:08:11Z</time>
      </trkpt>
      <trkpt lat="47.18368" lon="5.57853">
        <ele>268</ele>
        <time>2016-10-10T14:10:11Z</time>
      </trkpt>
      <trkpt lat="47.18382" lon="5.57804">
        <ele>273</ele>
        <time>2016-10-10T14:12:11Z</time>
      </trkpt>
      <trkpt lat="47.18384" lon="5.57774">
        <ele>274</ele>
        <time>2016-10-10T14:14:11Z</time>
      </trkpt>
      <trkpt lat="47.18376" lon="5.57728">
        <ele>274</ele>
        <time>2016-10-10T14:16:11Z</time>
      </trkpt>
      <trkpt lat="47.18361" lon="5.57674">
        <ele>272</ele>
        <time>2016-10-10T14:18:11Z</time>
      </trkpt>
      <trkpt lat="47.18362" lon="5.5765">
        <ele>272</ele>
        <time>2016-10-10T14:20:11Z</time>
      </trkpt>
      <trkpt lat="47.18371" lon="5.57641">
        <ele>273</ele>
        <time>2016-10-10T14:22:11Z</time>
      </trkpt>
      <trkpt lat="47.18387" lon="5.5763">
        <ele>276</ele>
        <time>2016-10-10T14:24:11Z</time>
      </trkpt>
      <trkpt lat="47.18409" lon="5.57622">
        <ele>279</ele>
        <time>2016-10-10T14:26:11Z</time>
      </trkpt>
      <trkpt lat="47.18418" lon="5.57626">
        <ele>281</ele>
        <time>2016-10-10T14:28:11Z</time>
      </trkpt>
      <trkpt lat="47.18419" lon="5.5763">
        <ele>282</ele>
        <time>2016-10-10T14:30:11Z</time>
      </trkpt>
      <trkpt lat="47.18426" lon="5.57639">
        <ele>284</ele>
        <time>2016-10-10T14:32:11Z</time>
      </trkpt>
      <trkpt lat="47.18445" lon="5.57644">
        <ele>287</ele>
        <time>2016-10-10T14:34:11Z</time>
      </trkpt>
      <trkpt lat="47.1846" lon="5.57661">
        <ele>292</ele>
        <time>2016-10-10T14:36:11Z</time>
      </trkpt>
      <trkpt lat="47.18469" lon="5.57669">
        <ele>294</ele>
        <time>2016-10-10T14:38:11Z</time>
      </trkpt>
      <trkpt lat="47.18475" lon="5.5768">
        <ele>296</ele>
        <time>2016-10-10T14:40:11Z</time>
      </trkpt>
      <trkpt lat="47.18498" lon="5.57704">
        <ele>302</ele>
        <time>2016-10-10T14:42:11Z</time>
      </trkpt>
      <trkpt lat="47.18505" lon="5.57712">
        <ele>303</ele>
        <time>2016-10-10T14:44:11Z</time>
      </trkpt>
      <trkpt lat="47.18528" lon="5.57734">
        <ele>306</ele>
        <time>2016-10-10T14:46:11Z</time>
      </trkpt>
      <trkpt lat="47.18551" lon="5.57762">
        <ele>308</ele>
        <time>2016-10-10T14:48:11Z</time>
      </trkpt>
      <trkpt lat="47.18554" lon="5.57775">
        <ele>308</ele>
        <time>2016-10-10T14:50:11Z</time>
      </trkpt>
      <trkpt lat="47.18577" lon="5.57816">
        <ele>312</ele>
        <time>2016-10-10T14:52:11Z</time>
      </trkpt>
      <trkpt lat="47.18606" lon="5.5785">
        <ele>315</ele>
        <time>2016-10-10T14:54:11Z</time>
      </trkpt>
      <trkpt lat="47.18615" lon="5.57856">
        <ele>315</ele>
        <time>2016-10-10T14:56:11Z</time>
      </trkpt>
      <trkpt lat="47.18621" lon="5.57868">
        <ele>316</ele>
        <time>2016-10-10T14:58:11Z</time>
      </trkpt>
      <trkpt lat="47.18646" lon="5.57888">
        <ele>320</ele>
        <time>2016-10-10T15:00:11Z</time>
      </trkpt>
      <trkpt lat="47.18653" lon="5.57896">
        <ele>321</ele>
        <time>2016-10-10T15:02:11Z</time>
      </trkpt>
      <trkpt lat="47.18678" lon="5.57919">
        <ele>326</ele>
        <time>2016-10-10T15:04:11Z</time>
      </trkpt>
      <trkpt lat="47.18697" lon="5.57938">
        <ele>327</ele>
        <time>2016-10-10T15:06:11Z</time>
      </trkpt>
      <trkpt lat="47.18704" lon="5.57946">
        <ele>328</ele>
        <time>2016-10-10T15:08:11Z</time>
      </trkpt>
      <trkpt lat="47.18721" lon="5.57959">
        <ele>330</ele>
        <time>2016-10-10T15:10:11Z</time>
      </trkpt>
      <trkpt lat="47.18727" lon="5.5797">
        <ele>332</ele>
        <time>2016-10-10T15:12:11Z</time>
      </trkpt>
      <trkpt lat="47.18751" lon="5.57991">
        <ele>337</ele>
        <time>2016-10-10T15:14:11Z</time>
      </trkpt>
      <trkpt lat="47.1876" lon="5.57999">
        <ele>339</ele>
        <time>2016-10-10T15:16:11Z</time>
      </trkpt>
      <trkpt lat="47.18769" lon="5.58003">
        <ele>340</ele>
        <time>2016-10-10T15:18:11Z</time>
      </trkpt>
      <trkpt lat="47.18776" lon="5.58013">
        <ele>340</ele>
        <time>2016-10-10T15:20:11Z</time>
      </trkpt>
      <trkpt lat="47.18808" lon="5.58041">
        <ele>343</ele>
        <time>2016-10-10T15:22:11Z</time>
      </trkpt>
      <trkpt lat="47.18825" lon="5.58052">
        <ele>346</ele>
        <time>2016-10-10T15:24:11Z</time>
      </trkpt>
      <trkpt lat="47.18845" lon="5.58082">
        <ele>349</ele>
        <time>2016-10-10T15:26:11Z</time>
      </trkpt>
      <trkpt lat="47.18852" lon="5.5809">
        <ele>349</ele>
        <time>2016-10-10T15:28:11Z</time>
      </trkpt>
      <trkpt lat="47.18885" lon="5.58117">
        <ele>351</ele>
        <time>2016-10-10T15:30:11Z</time>
      </trkpt>
      <trkpt lat="47.18892" lon="5.58124">
        <ele>352</ele>
        <time>2016-10-10T15:32:11Z</time>
      </trkpt>
      <trkpt lat="47.18908" lon="5.58137">
        <ele>354</ele>
        <time>2016-10-10T15:34:11Z</time>
      </trkpt>
      <trkpt lat="47.18915" lon="5.58146">
        <ele>355</ele>
        <time>2016-10-10T15:36:11Z</time>
      </trkpt>
      <trkpt lat="47.18923" lon="5.58154">
        <ele>355</ele>
        <time>2016-10-10T15:38:11Z</time>
      </trkpt>
      <trkpt lat="47.18929" lon="5.58166">
        <ele>356</ele>
        <time>2016-10-10T15:40:11Z</time>
      </trkpt>
      <trkpt lat="47.18936" lon="5.58176">
        <ele>356</ele>
        <time>2016-10-10T15:42:11Z</time>
      </trkpt>
      <trkpt lat="47.18944" lon="5.58182">
        <ele>357</ele>
        <time>2016-10-10T15:44:11Z</time>
      </trkpt>
      <trkpt lat="47.18962" lon="5.58191">
        <ele>358</ele>
        <time>2016-10-10T15:46:11Z</time>
      </trkpt>
      <trkpt lat="47.18967" lon="5.58203">
        <ele>359</ele>
        <time>2016-10-10T15:48:11Z</time>
      </trkpt>
      <trkpt lat="47.18974" lon="5.58212">
        <ele>360</ele>
        <time>2016-10-10T15:50:11Z</time>
      </trkpt>
      <trkpt lat="47.19" lon="5.58232">
        <ele>364</ele>
        <time>2016-10-10T15:52:11Z</time>
      </trkpt>
      <trkpt lat="47.19007" lon="5.58241">
        <ele>364</ele>
        <time>2016-10-10T15:54:11Z</time>
      </trkpt>
      <trkpt lat="47.19006" lon="5.58247">
        <ele>364</ele>
        <time>2016-10-10T15:56:11Z</time>
      </trkpt>
      <trkpt lat="47.19012" lon="5.58255">
        <ele>364</ele>
        <time>2016-10-10T15:58:11Z</time>
      </trkpt>
      <trkpt lat="47.19031" lon="5.58262">
        <ele>365</ele>
        <time>2016-10-10T16:00:11Z</time>
      </trkpt>
      <trkpt lat="47.19063" lon="5.58295">
        <ele>367</ele>
        <time>2016-10-10T16:02:11Z</time>
      </trkpt>
      <trkpt lat="47.19071" lon="5.58303">
        <ele>368</ele>
        <time>2016-10-10T16:04:11Z</time>
      </trkpt>
      <trkpt lat="47.1909" lon="5.58312">
        <ele>370</ele>
        <time>2016-10-10T16:06:11Z</time>
      </trkpt>
      <trkpt lat="47.19097" lon="5.58322">
        <ele>370</ele>
        <time>2016-10-10T16:08:11Z</time>
      </trkpt>
      <trkpt lat="47.19106" lon="5.58325">
        <ele>370</ele>
        <time>2016-10-10T16:10:11Z</time>
      </trkpt>
      <trkpt lat="47.19112" lon="5.58335">
        <ele>370</ele>
        <time>2016-10-10T16:12:11Z</time>
      </trkpt>
      <trkpt lat="47.19122" lon="5.58338">
        <ele>370</ele>
        <time>2016-10-10T16:14:11Z</time>
      </trkpt>
      <trkpt lat="47.19141" lon="5.58344">
        <ele>370</ele>
        <time>2016-10-10T16:16:11Z</time>
      </trkpt>
      <trkpt lat="47.1916" lon="5.58372">
        <ele>370</ele>
        <time>2016-10-10T16:18:11Z</time>
      </trkpt>
      <trkpt lat="47.19164" lon="5.58384">
        <ele>370</ele>
        <time>2016-10-10T16:20:11Z</time>
      </trkpt>
      <trkpt lat="47.19172" lon="5.58408">
        <ele>370</ele>
        <time>2016-10-10T16:22:11Z</time>
      </trkpt>
      <trkpt lat="47.19178" lon="5.58418">
        <ele>370</ele>
        <time>2016-10-10T16:24:11Z</time>
      </trkpt>
      <trkpt lat="47.19182" lon="5.58431">
        <ele>369</ele>
        <time>2016-10-10T16:26:11Z</time>
      </trkpt>
      <trkpt lat="47.19189" lon="5.58441">
        <ele>368</ele>
        <time>2016-10-10T16:28:11Z</time>
      </trkpt>
      <trkpt lat="47.19204" lon="5.5846">
        <ele>368</ele>
        <time>2016-10-10T16:30:11Z</time>
      </trkpt>
      <trkpt lat="47.19214" lon="5.58464">
        <ele>368</ele>
        <time>2016-10-10T16:32:11Z</time>
      </trkpt>
      <trkpt lat="47.1923" lon="5.58477">
        <ele>368</ele>
        <time>2016-10-10T16:34:11Z</time>
      </trkpt>
      <trkpt lat="47.19265" lon="5.58502">
        <ele>368</ele>
        <time>2016-10-10T16:36:11Z</time>
      </trkpt>
      <trkpt lat="47.19271" lon="5.58512">
        <ele>367</ele>
        <time>2016-10-10T16:38:11Z</time>
      </trkpt>
      <trkpt lat="47.19281" lon="5.58516">
        <ele>367</ele>
        <time>2016-10-10T16:40:11Z</time>
      </trkpt>
      <trkpt lat="47.1929" lon="5.58515">
        <ele>367</ele>
        <time>2016-10-10T16:42:11Z</time>
      </trkpt>
      <trkpt lat="47.19308" lon="5.58527">
        <ele>367</ele>
        <time>2016-10-10T16:44:11Z</time>
      </trkpt>
      <trkpt lat="47.19321" lon="5.58549">
        <ele>368</ele>
        <time>2016-10-10T16:46:11Z</time>
      </trkpt>
      <trkpt lat="47.19355" lon="5.58575">
        <ele>372</ele>
        <time>2016-10-10T16:48:11Z</time>
      </trkpt>
      <trkpt lat="47.19364" lon="5.58577">
        <ele>373</ele>
        <time>2016-10-10T16:50:11Z</time>
      </trkpt>
      <trkpt lat="47.19409" lon="5.58609">
        <ele>379</ele>
        <time>2016-10-10T16:52:11Z</time>
      </trkpt>
      <trkpt lat="47.19439" lon="5.5864">
        <ele>380</ele>
        <time>2016-10-10T16:54:11Z</time>
      </trkpt>
      <trkpt lat="47.19453" lon="5.58661">
        <ele>380</ele>
        <time>2016-10-10T16:56:11Z</time>
      </trkpt>
      <trkpt lat="47.19469" lon="5.58677">
        <ele>380</ele>
        <time>2016-10-10T16:58:11Z</time>
      </trkpt>
      <trkpt lat="47.19488" lon="5.58707">
        <ele>380</ele>
        <time>2016-10-10T17:00:11Z</time>
      </trkpt>
      <trkpt lat="47.19492" lon="5.5872">
        <ele>380</ele>
        <time>2016-10-10T17:02:11Z</time>
      </trkpt>
      <trkpt lat="47.19525" lon="5.58767">
        <ele>381</ele>
        <time>2016-10-10T17:04:11Z</time>
      </trkpt>
      <trkpt lat="47.19534" lon="5.58793">
        <ele>381</ele>
        <time>2016-10-10T17:06:11Z</time>
      </trkpt>
      <trkpt lat="47.19535" lon="5.58806">
        <ele>381</ele>
        <time>2016-10-10T17:08:11Z</time>
      </trkpt>
      <trkpt lat="47.19536" lon="5.5882">
        <ele>381</ele>
        <time>2016-10-10T17:10:11Z</time>
      </trkpt>
      <trkpt lat="47.19525" lon="5.58844">
        <ele>381</ele>
        <time>2016-10-10T17:12:11Z</time>
      </trkpt>
      <trkpt lat="47.19518" lon="5.58885">
        <ele>379</ele>
        <time>2016-10-10T17:14:11Z</time>
      </trkpt>
      <trkpt lat="47.19515" lon="5.58912">
        <ele>378</ele>
        <time>2016-10-10T17:16:11Z</time>
      </trkpt>
      <trkpt lat="47.19522" lon="5.58942">
        <ele>376</ele>
        <time>2016-10-10T17:18:11Z</time>
      </trkpt>
      <trkpt lat="47.19529" lon="5.58952">
        <ele>376</ele>
        <time>2016-10-10T17:20:11Z</time>
      </trkpt>
      <trkpt lat="47.1956" lon="5.58986">
        <ele>377</ele>
        <time>2016-10-10T17:22:11Z</time>
      </trkpt>
      <trkpt lat="47.19574" lon="5.59006">
        <ele>378</ele>
        <time>2016-10-10T17:24:11Z</time>
      </trkpt>
      <trkpt lat="47.19581" lon="5.59016">
        <ele>378</ele>
        <time>2016-10-10T17:26:11Z</time>
      </trkpt>
      <trkpt lat="47.1959" lon="5.59018">
        <ele>378</ele>
        <time>2016-10-10T17:28:11Z</time>
      </trkpt>
      <trkpt lat="47.19595" lon="5.59013">
        <ele>379</ele>
        <time>2016-10-10T17:30:11Z</time>
      </trkpt>
      <trkpt lat="47.19605" lon="5.59016">
        <ele>379</ele>
        <time>2016-10-10T17:32:11Z</time>
      </trkpt>
      <trkpt lat="47.19614" lon="5.59022">
        <ele>380</ele>
        <time>2016-10-10T17:34:11Z</time>
      </trkpt>
      <trkpt lat="47.19623" lon="5.59047">
        <ele>380</ele>
        <time>2016-10-10T17:36:11Z</time>
      </trkpt>
      <trkpt lat="47.19629" lon="5.59058">
        <ele>380</ele>
        <time>2016-10-10T17:38:11Z</time>
      </trkpt>
      <trkpt lat="47.19638" lon="5.59066">
        <ele>381</ele>
        <time>2016-10-10T17:40:11Z</time>
      </trkpt>
      <trkpt lat="47.19672" lon="5.59117">
        <ele>383</ele>
        <time>2016-10-10T17:42:11Z</time>
      </trkpt>
      <trkpt lat="47.19701" lon="5.59153">
        <ele>384</ele>
        <time>2016-10-10T17:44:11Z</time>
      </trkpt>
      <trkpt lat="47.19707" lon="5.59163">
        <ele>384</ele>
        <time>2016-10-10T17:46:11Z</time>
      </trkpt>
      <trkpt lat="47.19713" lon="5.59174">
        <ele>385</ele>
        <time>2016-10-10T17:48:11Z</time>
      </trkpt>
      <trkpt lat="47.19725" lon="5.59198">
        <ele>385</ele>
        <time>2016-10-10T17:50:11Z</time>
      </trkpt>
      <trkpt lat="47.19733" lon="5.59203">
        <ele>386</ele>
        <time>2016-10-10T17:52:11Z</time>
      </trkpt>
      <trkpt lat="47.19759" lon="5.59245">
        <ele>389</ele>
        <time>2016-10-10T17:54:11Z</time>
      </trkpt>
      <trkpt lat="47.19766" lon="5.59255">
        <ele>389</ele>
        <time>2016-10-10T17:56:11Z</time>
      </trkpt>
      <trkpt lat="47.19775" lon="5.59259">
        <ele>389</ele>
        <time>2016-10-10T17:58:11Z</time>
      </trkpt>
      <trkpt lat="47.1979" lon="5.59276">
        <ele>390</ele>
        <time>2016-10-10T18:00:11Z</time>
      </trkpt>
      <trkpt lat="47.19815" lon="5.59296">
        <ele>390</ele>
        <time>2016-10-10T18:02:11Z</time>
      </trkpt>
      <trkpt lat="47.19826" lon="5.59294">
        <ele>391</ele>
        <time>2016-10-10T18:04:11Z</time>
      </trkpt>
      <trkpt lat="47.19836" lon="5.59298">
        <ele>391</ele>
        <time>2016-10-10T18:06:11Z</time>
      </trkpt>
      <trkpt lat="47.19843" lon="5.59308">
        <ele>391</ele>
        <time>2016-10-10T18:08:11Z</time>
      </trkpt>
      <trkpt lat="47.19849" lon="5.5932">
        <ele>391</ele>
        <time>2016-10-10T18:10:11Z</time>
      </trkpt>
      <trkpt lat="47.19883" lon="5.59344">
        <ele>390</ele>
        <time>2016-10-10T18:12:11Z</time>
      </trkpt>
      <trkpt lat="47.19901" lon="5.5935">
        <ele>391</ele>
        <time>2016-10-10T18:14:11Z</time>
      </trkpt>
      <trkpt lat="47.19909" lon="5.59357">
        <ele>390</ele>
        <time>2016-10-10T18:16:11Z</time>
      </trkpt>
      <trkpt lat="47.19918" lon="5.59361">
        <ele>391</ele>
        <time>2016-10-10T18:18:11Z</time>
      </trkpt>
      <trkpt lat="47.19927" lon="5.59368">
        <ele>391</ele>
        <time>2016-10-10T18:20:11Z</time>
      </trkpt>
      <trkpt lat="47.19934" lon="5.59377">
        <ele>391</ele>
        <time>2016-10-10T18:22:11Z</time>
      </trkpt>
      <trkpt lat="47.1995" lon="5.59392">
        <ele>391</ele>
        <time>2016-10-10T18:24:11Z</time>
      </trkpt>
      <trkpt lat="47.19968" lon="5.59403">
        <ele>392</ele>
        <time>2016-10-10T18:26:11Z</time>
      </trkpt>
      <trkpt lat="47.19999" lon="5.59408">
        <ele>394</ele>
        <time>2016-10-10T18:28:11Z</time>
      </trkpt>
      <trkpt lat="47.20007" lon="5.59404">
        <ele>394</ele>
        <time>2016-10-10T18:30:11Z</time>
      </trkpt>
      <trkpt lat="47.20018" lon="5.59407">
        <ele>395</ele>
        <time>2016-10-10T18:32:11Z</time>
      </trkpt>
      <trkpt lat="47.20035" lon="5.59398">
        <ele>395</ele>
        <time>2016-10-10T18:34:11Z</time>
      </trkpt>
      <trkpt lat="47.20054" lon="5.59391">
        <ele>396</ele>
        <time>2016-10-10T18:36:11Z</time>
      </trkpt>
      <trkpt lat="47.2006" lon="5.59381">
        <ele>396</ele>
        <time>2016-10-10T18:38:11Z</time>
      </trkpt>
      <trkpt lat="47.2007" lon="5.59375">
        <ele>396</ele>
        <time>2016-10-10T18:40:11Z</time>
      </trkpt>
      <trkpt lat="47.20079" lon="5.59367">
        <ele>396</ele>
        <time>2016-10-10T18:42:11Z</time>
      </trkpt>
      <trkpt lat="47.20085" lon="5.59379">
        <ele>397</ele>
        <time>2016-10-10T18:44:11Z</time>
      </trkpt>
      <trkpt lat="47.20087" lon="5.59393">
        <ele>398</ele>
        <time>2016-10-10T18:46:11Z</time>
      </trkpt>
      <trkpt lat="47.20089" lon="5.5942">
        <ele>399</ele>
        <time>2016-10-10T18:48:11Z</time>
      </trkpt>
      <trkpt lat="47.20098" lon="5.59422">
        <ele>399</ele>
        <time>2016-10-10T18:50:11Z</time>
      </trkpt>
      <trkpt lat="47.20105" lon="5.59433">
        <ele>399</ele>
        <time>2016-10-10T18:52:11Z</time>
      </trkpt>
      <trkpt lat="47.20108" lon="5.59447">
        <ele>399</ele>
        <time>2016-10-10T18:54:11Z</time>
      </trkpt>
      <trkpt lat="47.20119" lon="5.59457">
        <ele>399</ele>
        <time>2016-10-10T18:56:11Z</time>
      </trkpt>
      <trkpt lat="47.20128" lon="5.59464">
        <ele>399</ele>
        <time>2016-10-10T18:58:11Z</time>
      </trkpt>
      <trkpt lat="47.20132" lon="5.59476">
        <ele>399</ele>
        <time>2016-10-10T19:00:11Z</time>
      </trkpt>
      <trkpt lat="47.20144" lon="5.59497">
        <ele>399</ele>
        <time>2016-10-10T19:02:11Z</time>
      </trkpt>
      <trkpt lat="47.20152" lon="5.59506">
        <ele>399</ele>
        <time>2016-10-10T19:04:11Z</time>
      </trkpt>
      <trkpt lat="47.20157" lon="5.59519">
        <ele>399</ele>
        <time>2016-10-10T19:06:11Z</time>
      </trkpt>
      <trkpt lat="47.20164" lon="5.59528">
        <ele>399</ele>
        <time>2016-10-10T19:08:11Z</time>
      </trkpt>
      <trkpt lat="47.20173" lon="5.59535">
        <ele>398</ele>
        <time>2016-10-10T19:10:11Z</time>
      </trkpt>
      <trkpt lat="47.20178" lon="5.59547">
        <ele>398</ele>
        <time>2016-10-10T19:12:11Z</time>
      </trkpt>
      <trkpt lat="47.20185" lon="5.59555">
        <ele>397</ele>
        <time>2016-10-10T19:14:11Z</time>
      </trkpt>
      <trkpt lat="47.20199" lon="5.59573">
        <ele>397</ele>
        <time>2016-10-10T19:16:11Z</time>
      </trkpt>
      <trkpt lat="47.20204" lon="5.59584">
        <ele>396</ele>
        <time>2016-10-10T19:18:11Z</time>
      </trkpt>
      <trkpt lat="47.20218" lon="5.59602">
        <ele>395</ele>
        <time>2016-10-10T19:20:11Z</time>
      </trkpt>
      <trkpt lat="47.20224" lon="5.59611">
        <ele>394</ele>
        <time>2016-10-10T19:22:11Z</time>
      </trkpt>
      <trkpt lat="47.2023" lon="5.59621">
        <ele>394</ele>
        <time>2016-10-10T19:24:11Z</time>
      </trkpt>
      <trkpt lat="47.20237" lon="5.5963">
        <ele>393</ele>
        <time>2016-10-10T19:26:11Z</time>
      </trkpt>
      <trkpt lat="47.20269" lon="5.59658">
        <ele>392</ele>
        <time>2016-10-10T19:28:11Z</time>
      </trkpt>
      <trkpt lat="47.20278" lon="5.59654">
        <ele>393</ele>
        <time>2016-10-10T19:30:11Z</time>
      </trkpt>
      <trkpt lat="47.20285" lon="5.59645">
        <ele>394</ele>
        <time>2016-10-10T19:32:11Z</time>
      </trkpt>
      <trkpt lat="47.20289" lon="5.59632">
        <ele>395</ele>
        <time>2016-10-10T19:34:11Z</time>
      </trkpt>
      <trkpt lat="47.20289" lon="5.59625">
        <ele>395</ele>
        <time>2016-10-10T19:36:11Z</time>
      </trkpt>
      <trkpt lat="47.20294" lon="5.59633">
        <ele>395</ele>
        <time>2016-10-10T19:38:11Z</time>
      </trkpt>
      <trkpt lat="47.20295" lon="5.59666">
        <ele>393</ele>
        <time>2016-10-10T19:40:11Z</time>
      </trkpt>
      <trkpt lat="47.2029" lon="5.59649">
        <ele>394</ele>
        <time>2016-10-10T19:42:11Z</time>
      </trkpt>
      <trkpt lat="47.2029" lon="5.5964">
        <ele>394</ele>
        <time>2016-10-10T19:44:11Z</time>
      </trkpt>
      <trkpt lat="47.20288" lon="5.59633">
        <ele>395</ele>
        <time>2016-10-10T19:46:11Z</time>
      </trkpt>
      <trkpt lat="47.20295" lon="5.5963">
        <ele>395</ele>
        <time>2016-10-10T19:48:11Z</time>
      </trkpt>
      <trkpt lat="47.20297" lon="5.59619">
        <ele>395</ele>
        <time>2016-10-10T19:50:11Z</time>
      </trkpt>
      <trkpt lat="47.20304" lon="5.59616">
        <ele>396</ele>
        <time>2016-10-10T19:52:11Z</time>
      </trkpt>
      <trkpt lat="47.20306" lon="5.59603">
        <ele>396</ele>
        <time>2016-10-10T19:54:11Z</time>
      </trkpt>
      <trkpt lat="47.20301" lon="5.59591">
        <ele>397</ele>
        <time>2016-10-10T19:56:11Z</time>
      </trkpt>
      <trkpt lat="47.203" lon="5.59562">
        <ele>397</ele>
        <time>2016-10-10T19:58:11Z</time>
      </trkpt>
      <trkpt lat="47.20288" lon="5.59526">
        <ele>398</ele>
        <time>2016-10-10T20:00:11Z</time>
      </trkpt>
      <trkpt lat="47.20294" lon="5.59498">
        <ele>398</ele>
        <time>2016-10-10T20:02:11Z</time>
      </trkpt>
      <trkpt lat="47.20291" lon="5.59486">
        <ele>398</ele>
        <time>2016-10-10T20:04:11Z</time>
      </trkpt>
      <trkpt lat="47.2029" lon="5.59472">
        <ele>398</ele>
        <time>2016-10-10T20:06:11Z</time>
      </trkpt>
      <trkpt lat="47.20284" lon="5.59461">
        <ele>398</ele>
        <time>2016-10-10T20:08:11Z</time>
      </trkpt>
      <trkpt lat="47.20284" lon="5.59448">
        <ele>398</ele>
        <time>2016-10-10T20:10:11Z</time>
      </trkpt>
      <trkpt lat="47.20276" lon="5.59423">
        <ele>398</ele>
        <time>2016-10-10T20:12:11Z</time>
      </trkpt>
      <trkpt lat="47.20279" lon="5.5941">
        <ele>398</ele>
        <time>2016-10-10T20:14:11Z</time>
      </trkpt>
      <trkpt lat="47.20287" lon="5.59384">
        <ele>396</ele>
        <time>2016-10-10T20:16:11Z</time>
      </trkpt>
      <trkpt lat="47.20289" lon="5.59371">
        <ele>395</ele>
        <time>2016-10-10T20:18:11Z</time>
      </trkpt>
      <trkpt lat="47.2029" lon="5.59357">
        <ele>394</ele>
        <time>2016-10-10T20:20:11Z</time>
      </trkpt>
      <trkpt lat="47.20292" lon="5.59343">
        <ele>394</ele>
        <time>2016-10-10T20:22:11Z</time>
      </trkpt>
      <trkpt lat="47.20289" lon="5.5933">
        <ele>393</ele>
        <time>2016-10-10T20:24:11Z</time>
      </trkpt>
      <trkpt lat="47.20287" lon="5.59301">
        <ele>391</ele>
        <time>2016-10-10T20:26:11Z</time>
      </trkpt>
      <trkpt lat="47.20299" lon="5.59248">
        <ele>387</ele>
        <time>2016-10-10T20:28:11Z</time>
      </trkpt>
      <trkpt lat="47.20306" lon="5.59192">
        <ele>383</ele>
        <time>2016-10-10T20:30:11Z</time>
      </trkpt>
      <trkpt lat="47.20309" lon="5.59185">
        <ele>383</ele>
        <time>2016-10-10T20:32:11Z</time>
      </trkpt>
      <trkpt lat="47.20308" lon="5.59157">
        <ele>381</ele>
        <time>2016-10-10T20:34:11Z</time>
      </trkpt>
      <trkpt lat="47.20316" lon="5.59129">
        <ele>379</ele>
        <time>2016-10-10T20:36:11Z</time>
      </trkpt>
      <trkpt lat="47.20311" lon="5.59116">
        <ele>379</ele>
        <time>2016-10-10T20:38:11Z</time>
      </trkpt>
      <trkpt lat="47.20302" lon="5.59076">
        <ele>378</ele>
        <time>2016-10-10T20:40:11Z</time>
      </trkpt>
      <trkpt lat="47.20304" lon="5.59066">
        <ele>377</ele>
        <time>2016-10-10T20:42:11Z</time>
      </trkpt>
      <trkpt lat="47.20301" lon="5.5905">
        <ele>376</ele>
        <time>2016-10-10T20:44:11Z</time>
      </trkpt>
      <trkpt lat="47.20296" lon="5.59037">
        <ele>376</ele>
        <time>2016-10-10T20:46:11Z</time>
      </trkpt>
      <trkpt lat="47.20293" lon="5.59024">
        <ele>375</ele>
        <time>2016-10-10T20:48:11Z</time>
      </trkpt>
      <trkpt lat="47.20287" lon="5.59012">
        <ele>375</ele>
        <time>2016-10-10T20:50:11Z</time>
      </trkpt>
      <trkpt lat="47.20271" lon="5.58971">
        <ele>374</ele>
        <time>2016-10-10T20:52:11Z</time>
      </trkpt>
      <trkpt lat="47.20263" lon="5.58966">
        <ele>374</ele>
        <time>2016-10-10T20:54:11Z</time>
      </trkpt>
      <trkpt lat="47.20237" lon="5.5894">
        <ele>375</ele>
        <time>2016-10-10T20:56:11Z</time>
      </trkpt>
      <trkpt lat="47.20235" lon="5.58913">
        <ele>374</ele>
        <time>2016-10-10T20:58:11Z</time>
      </trkpt>
      <trkpt lat="47.20233" lon="5.58899">
        <ele>374</ele>
        <time>2016-10-10T21:00:11Z</time>
      </trkpt>
      <trkpt lat="47.20204" lon="5.58861">
        <ele>374</ele>
        <time>2016-10-10T21:02:11Z</time>
      </trkpt>
      <trkpt lat="47.20199" lon="5.58848">
        <ele>374</ele>
        <time>2016-10-10T21:04:11Z</time>
      </trkpt>
      <trkpt lat="47.20191" lon="5.58841">
        <ele>374</ele>
        <time>2016-10-10T21:06:11Z</time>
      </trkpt>
      <trkpt lat="47.20184" lon="5.58832">
        <ele>374</ele>
        <time>2016-10-10T21:08:11Z</time>
      </trkpt>
      <trkpt lat="47.2018" lon="5.58818">
        <ele>375</ele>
        <time>2016-10-10T21:10:11Z</time>
      </trkpt>
      <trkpt lat="47.20179" lon="5.58805">
        <ele>376</ele>
        <time>2016-10-10T21:12:11Z</time>
      </trkpt>
      <trkpt lat="47.20156" lon="5.58772">
        <ele>376</ele>
        <time>2016-10-10T21:14:11Z</time>
      </trkpt>
      <trkpt lat="47.20121" lon="5.58725">
        <ele>374</ele>
        <time>2016-10-10T21:16:11Z</time>
      </trkpt>
      <trkpt lat="47.20115" lon="5.58698">
        <ele>374</ele>
        <time>2016-10-10T21:18:11Z</time>
      </trkpt>
      <trkpt lat="47.20078" lon="5.58634">
        <ele>372</ele>
        <time>2016-10-10T21:20:11Z</time>
      </trkpt>
      <trkpt lat="47.20059" lon="5.58604">
        <ele>371</ele>
        <time>2016-10-10T21:22:11Z</time>
      </trkpt>
      <trkpt lat="47.20057" lon="5.5859">
        <ele>371</ele>
        <time>2016-10-10T21:24:11Z</time>
      </trkpt>
      <trkpt lat="47.2003" lon="5.5854">
        <ele>369</ele>
        <time>2016-10-10T21:26:11Z</time>
      </trkpt>
      <trkpt lat="47.1999" lon="5.5848">
        <ele>367</ele>
        <time>2016-10-10T21:28:11Z</time>
      </trkpt>
      <trkpt lat="47.19971" lon="5.58449">
        <ele>364</ele>
        <time>2016-10-10T21:30:11Z</time>
      </trkpt>
      <trkpt lat="47.19965" lon="5.58439">
        <ele>363</ele>
        <time>2016-10-10T21:32:11Z</time>
      </trkpt>
      <trkpt lat="47.19957" lon="5.5843">
        <ele>362</ele>
        <time>2016-10-10T21:34:11Z</time>
      </trkpt>
      <trkpt lat="47.19941" lon="5.58393">
        <ele>361</ele>
        <time>2016-10-10T21:36:11Z</time>
      </trkpt>
      <trkpt lat="47.1993" lon="5.58384">
        <ele>359</ele>
        <time>2016-10-10T21:38:11Z</time>
      </trkpt>
      <trkpt lat="47.19917" lon="5.58362">
        <ele>359</ele>
        <time>2016-10-10T21:40:11Z</time>
      </trkpt>
      <trkpt lat="47.19908" lon="5.58355">
        <ele>358</ele>
        <time>2016-10-10T21:42:11Z</time>
      </trkpt>
      <trkpt lat="47.1989" lon="5.58324">
        <ele>357</ele>
        <time>2016-10-10T21:44:11Z</time>
      </trkpt>
      <trkpt lat="47.19882" lon="5.58316">
        <ele>356</ele>
        <time>2016-10-10T21:46:11Z</time>
      </trkpt>
      <trkpt lat="47.19855" lon="5.58274">
        <ele>353</ele>
        <time>2016-10-10T21:48:11Z</time>
      </trkpt>
      <trkpt lat="47.19847" lon="5.58264">
        <ele>353</ele>
        <time>2016-10-10T21:50:11Z</time>
      </trkpt>
      <trkpt lat="47.19822" lon="5.58242">
        <ele>351</ele>
        <time>2016-10-10T21:52:11Z</time>
      </trkpt>
      <trkpt lat="47.19813" lon="5.58225">
        <ele>351</ele>
        <time>2016-10-10T21:54:11Z</time>
      </trkpt>
      <trkpt lat="47.19808" lon="5.5821">
        <ele>351</ele>
        <time>2016-10-10T21:56:11Z</time>
      </trkpt>
      <trkpt lat="47.19802" lon="5.58199">
        <ele>350</ele>
        <time>2016-10-10T21:58:11Z</time>
      </trkpt>
      <trkpt lat="47.19785" lon="5.58188">
        <ele>349</ele>
        <time>2016-10-10T22:00:11Z</time>
      </trkpt>
      <trkpt lat="47.19771" lon="5.58169">
        <ele>348</ele>
        <time>2016-10-10T22:02:11Z</time>
      </trkpt>
      <trkpt lat="47.19747" lon="5.58124">
        <ele>346</ele>
        <time>2016-10-10T22:04:11Z</time>
      </trkpt>
      <trkpt lat="47.19733" lon="5.58104">
        <ele>346</ele>
        <time>2016-10-10T22:06:11Z</time>
      </trkpt>
      <trkpt lat="47.19715" lon="5.58072">
        <ele>346</ele>
        <time>2016-10-10T22:08:11Z</time>
      </trkpt>
      <trkpt lat="47.19699" lon="5.58057">
        <ele>346</ele>
        <time>2016-10-10T22:10:11Z</time>
      </trkpt>
      <trkpt lat="47.19695" lon="5.58045">
        <ele>346</ele>
        <time>2016-10-10T22:12:11Z</time>
      </trkpt>
      <trkpt lat="47.19697" lon="5.58037">
        <ele>347</ele>
        <time>2016-10-10T22:14:11Z</time>
      </trkpt>
      <trkpt lat="47.19686" lon="5.58032">
        <ele>347</ele>
        <time>2016-10-10T22:16:11Z</time>
      </trkpt>
      <trkpt lat="47.19681" lon="5.58021">
        <ele>347</ele>
        <time>2016-10-10T22:18:11Z</time>
      </trkpt>
      <trkpt lat="47.19678" lon="5.58008">
        <ele>348</ele>
        <time>2016-10-10T22:20:11Z</time>
      </trkpt>
      <trkpt lat="47.1967" lon="5.57998">
        <ele>349</ele>
        <time>2016-10-10T22:22:11Z</time>
      </trkpt>
      <trkpt lat="47.19662" lon="5.57993">
        <ele>350</ele>
        <time>2016-10-10T22:24:11Z</time>
      </trkpt>
      <trkpt lat="47.19654" lon="5.57987">
        <ele>351</ele>
        <time>2016-10-10T22:26:11Z</time>
      </trkpt>
      <trkpt lat="47.19639" lon="5.5797">
        <ele>354</ele>
        <time>2016-10-10T22:28:11Z</time>
      </trkpt>
      <trkpt lat="47.19624" lon="5.57947">
        <ele>357</ele>
        <time>2016-10-10T22:30:11Z</time>
      </trkpt>
      <trkpt lat="47.19619" lon="5.57935">
        <ele>359</ele>
        <time>2016-10-10T22:32:11Z</time>
      </trkpt>
      <trkpt lat="47.19614" lon="5.57924">
        <ele>360</ele>
        <time>2016-10-10T22:34:11Z</time>
      </trkpt>
      <trkpt lat="47.19592" lon="5.57892">
        <ele>363</ele>
        <time>2016-10-10T22:36:11Z</time>
      </trkpt>
      <trkpt lat="47.19579" lon="5.57883">
        <ele>364</ele>
        <time>2016-10-10T22:38:11Z</time>
      </trkpt>
      <trkpt lat="47.19571" lon="5.57876">
        <ele>364</ele>
        <time>2016-10-10T22:40:11Z</time>
      </trkpt>
      <trkpt lat="47.19566" lon="5.57864">
        <ele>364</ele>
        <time>2016-10-10T22:42:11Z</time>
      </trkpt>
      <trkpt lat="47.19547" lon="5.5783">
        <ele>365</ele>
        <time>2016-10-10T22:44:11Z</time>
      </trkpt>
      <trkpt lat="47.1954" lon="5.57823">
        <ele>365</ele>
        <time>2016-10-10T22:46:11Z</time>
      </trkpt>
      <trkpt lat="47.19525" lon="5.57803">
        <ele>365</ele>
        <time>2016-10-10T22:48:11Z</time>
      </trkpt>
      <trkpt lat="47.19521" lon="5.57791">
        <ele>365</ele>
        <time>2016-10-10T22:50:11Z</time>
      </trkpt>
      <trkpt lat="47.19508" lon="5.5777">
        <ele>365</ele>
        <time>2016-10-10T22:52:11Z</time>
      </trkpt>
      <trkpt lat="47.19489" lon="5.57738">
        <ele>365</ele>
        <time>2016-10-10T22:54:11Z</time>
      </trkpt>
      <trkpt lat="47.19474" lon="5.57721">
        <ele>365</ele>
        <time>2016-10-10T22:56:11Z</time>
      </trkpt>
      <trkpt lat="47.19459" lon="5.57702">
        <ele>364</ele>
        <time>2016-10-10T22:58:11Z</time>
      </trkpt>
      <trkpt lat="47.19456" lon="5.57688">
        <ele>365</ele>
        <time>2016-10-10T23:00:11Z</time>
      </trkpt>
      <trkpt lat="47.19442" lon="5.5767">
        <ele>364</ele>
        <time>2016-10-10T23:02:11Z</time>
      </trkpt>
      <trkpt lat="47.19435" lon="5.5766">
        <ele>364</ele>
        <time>2016-10-10T23:04:11Z</time>
      </trkpt>
      <trkpt lat="47.19412" lon="5.57635">
        <ele>364</ele>
        <time>2016-10-10T23:06:11Z</time>
      </trkpt>
      <trkpt lat="47.19405" lon="5.57626">
        <ele>364</ele>
        <time>2016-10-10T23:08:11Z</time>
      </trkpt>
      <trkpt lat="47.19397" lon="5.57617">
        <ele>364</ele>
        <time>2016-10-10T23:10:11Z</time>
      </trkpt>
      <trkpt lat="47.19391" lon="5.57607">
        <ele>364</ele>
        <time>2016-10-10T23:12:11Z</time>
      </trkpt>
      <trkpt lat="47.19388" lon="5.57594">
        <ele>365</ele>
        <time>2016-10-10T23:14:11Z</time>
      </trkpt>
      <trkpt lat="47.19374" lon="5.57575">
        <ele>366</ele>
        <time>2016-10-10T23:16:11Z</time>
      </trkpt>
      <trkpt lat="47.19372" lon="5.57561">
        <ele>367</ele>
        <time>2016-10-10T23:18:11Z</time>
      </trkpt>
      <trkpt lat="47.19366" lon="5.5755">
        <ele>368</ele>
        <time>2016-10-10T23:20:11Z</time>
      </trkpt>
      <trkpt lat="47.1936" lon="5.57508">
        <ele>370</ele>
        <time>2016-10-10T23:22:11Z</time>
      </trkpt>
      <trkpt lat="47.19352" lon="5.57501">
        <ele>371</ele>
        <time>2016-10-10T23:24:11Z</time>
      </trkpt>
      <trkpt lat="47.19345" lon="5.57491">
        <ele>371</ele>
        <time>2016-10-10T23:26:11Z</time>
      </trkpt>
      <trkpt lat="47.19339" lon="5.5748">
        <ele>372</ele>
        <time>2016-10-10T23:28:11Z</time>
      </trkpt>
      <trkpt lat="47.19331" lon="5.57469">
        <ele>372</ele>
        <time>2016-10-10T23:30:11Z</time>
      </trkpt>
      <trkpt lat="47.19327" lon="5.57456">
        <ele>372</ele>
        <time>2016-10-10T23:32:11Z</time>
      </trkpt>
      <trkpt lat="47.19324" lon="5.57444">
        <ele>373</ele>
        <time>2016-10-10T23:34:11Z</time>
      </trkpt>
      <trkpt lat="47.19315" lon="5.57439">
        <ele>373</ele>
        <time>2016-10-10T23:36:11Z</time>
      </trkpt>
      <trkpt lat="47.19309" lon="5.57428">
        <ele>374</ele>
        <time>2016-10-10T23:38:11Z</time>
      </trkpt>
      <trkpt lat="47.19307" lon="5.57415">
        <ele>374</ele>
        <time>2016-10-10T23:40:11Z</time>
      </trkpt>
      <trkpt lat="47.19298" lon="5.57406">
        <ele>375</ele>
        <time>2016-10-10T23:42:11Z</time>
      </trkpt>
      <trkpt lat="47.19293" lon="5.57394">
        <ele>375</ele>
        <time>2016-10-10T23:44:11Z</time>
      </trkpt>
      <trkpt lat="47.19289" lon="5.57393">
        <ele>375</ele>
        <time>2016-10-10T23:46:11Z</time>
      </trkpt>
      <trkpt lat="47.19283" lon="5.57387">
        <ele>376</ele>
        <time>2016-10-10T23:48:11Z</time>
      </trkpt>
      <trkpt lat="47.19275" lon="5.57363">
        <ele>376</ele>
        <time>2016-10-10T23:50:11Z</time>
      </trkpt>
      <trkpt lat="47.19264" lon="5.57341">
        <ele>377</ele>
        <time>2016-10-10T23:52:11Z</time>
      </trkpt>
      <trkpt lat="47.19256" lon="5.57332">
        <ele>377</ele>
        <time>2016-10-10T23:54:11Z</time>
      </trkpt>
      <trkpt lat="47.19251" lon="5.5732">
        <ele>377</ele>
        <time>2016-10-10T23:56:11Z</time>
      </trkpt>
      <trkpt lat="47.19239" lon="5.57298">
        <ele>376</ele>
        <time>2016-10-10T23:58:11Z</time>
      </trkpt>
      <trkpt lat="47.19241" lon="5.57285">
        <ele>376</ele>
        <time>2016-10-11T00:00:11Z</time>
      </trkpt>
      <trkpt lat="47.19236" lon="5.57272">
        <ele>376</ele>
        <time>2016-10-11T00:02:11Z</time>
      </trkpt>
      <trkpt lat="47.19222" lon="5.57254">
        <ele>375</ele>
        <time>2016-10-11T00:04:11Z</time>
      </trkpt>
      <trkpt lat="47.1922" lon="5.5724">
        <ele>374</ele>
        <time>2016-10-11T00:06:11Z</time>
      </trkpt>
      <trkpt lat="47.19201" lon="5.57208">
        <ele>373</ele>
        <time>2016-10-11T00:08:11Z</time>
      </trkpt>
      <trkpt lat="47.19183" lon="5.57176">
        <ele>370</ele>
        <time>2016-10-11T00:10:11Z</time>
      </trkpt>
      <trkpt lat="47.19169" lon="5.57139">
        <ele>368</ele>
        <time>2016-10-11T00:12:11Z</time>
      </trkpt>
      <trkpt lat="47.19157" lon="5.57117">
        <ele>366</ele>
        <time>2016-10-11T00:14:11Z</time>
      </trkpt>
      <trkpt lat="47.1915" lon="5.57107">
        <ele>365</ele>
        <time>2016-10-11T00:16:11Z</time>
      </trkpt>
      <trkpt lat="47.19145" lon="5.57094">
        <ele>364</ele>
        <time>2016-10-11T00:18:11Z</time>
      </trkpt>
      <trkpt lat="47.19139" lon="5.57083">
        <ele>364</ele>
        <time>2016-10-11T00:20:11Z</time>
      </trkpt>
      <trkpt lat="47.19135" lon="5.5707">
        <ele>364</ele>
        <time>2016-10-11T00:22:11Z</time>
      </trkpt>
      <trkpt lat="47.19129" lon="5.57058">
        <ele>363</ele>
        <time>2016-10-11T00:24:11Z</time>
      </trkpt>
      <trkpt lat="47.1912" lon="5.57035">
        <ele>364</ele>
        <time>2016-10-11T00:26:11Z</time>
      </trkpt>
      <trkpt lat="47.19114" lon="5.57024">
        <ele>364</ele>
        <time>2016-10-11T00:28:11Z</time>
      </trkpt>
      <trkpt lat="47.19117" lon="5.57008">
        <ele>364</ele>
        <time>2016-10-11T00:30:11Z</time>
      </trkpt>
      <trkpt lat="47.19111" lon="5.56997">
        <ele>365</ele>
        <time>2016-10-11T00:32:11Z</time>
      </trkpt>
      <trkpt lat="47.19109" lon="5.56983">
        <ele>366</ele>
        <time>2016-10-11T00:34:11Z</time>
      </trkpt>
      <trkpt lat="47.19098" lon="5.56961">
        <ele>368</ele>
        <time>2016-10-11T00:36:11Z</time>
      </trkpt>
      <trkpt lat="47.19089" lon="5.56937">
        <ele>371</ele>
        <time>2016-10-11T00:38:11Z</time>
      </trkpt>
      <trkpt lat="47.19088" lon="5.56924">
        <ele>372</ele>
        <time>2016-10-11T00:40:11Z</time>
      </trkpt>
      <trkpt lat="47.19082" lon="5.56914">
        <ele>373</ele>
        <time>2016-10-11T00:42:11Z</time>
      </trkpt>
      <trkpt lat="47.19068" lon="5.56915">
        <ele>374</ele>
        <time>2016-10-11T00:44:11Z</time>
      </trkpt>
      <trkpt lat="47.19065" lon="5.56901">
        <ele>375</ele>
        <time>2016-10-11T00:46:11Z</time>
      </trkpt>
      <trkpt lat="47.1906" lon="5.5689">
        <ele>376</ele>
        <time>2016-10-11T00:48:11Z</time>
      </trkpt>
      <trkpt lat="47.19057" lon="5.56876">
        <ele>377</ele>
        <time>2016-10-11T00:50:11Z</time>
      </trkpt>
      <trkpt lat="47.1905" lon="5.56867">
        <ele>378</ele>
        <time>2016-10-11T00:52:11Z</time>
      </trkpt>
      <trkpt lat="47.19035" lon="5.56828">
        <ele>380</ele>
        <time>2016-10-11T00:54:11Z</time>
      </trkpt>
      <trkpt lat="47.19021" lon="5.56805">
        <ele>380</ele>
        <time>2016-10-11T00:56:11Z</time>
      </trkpt>
      <trkpt lat="47.19016" lon="5.568">
        <ele>380</ele>
        <time>2016-10-11T00:58:11Z</time>
      </trkpt>
      <trkpt lat="47.19016" lon="5.568">
        <ele>380</ele>
        <time>2016-10-11T01:00:11Z</time>
      </trkpt>
      <trkpt lat="47.19014" lon="5.56802">
        <ele>380</ele>
        <time>2016-10-11T01:02:11Z</time>
      </trkpt>
      <trkpt lat="47.1901" lon="5.56795">
        <ele>380</ele>
        <time>2016-10-11T01:04:11Z</time>
      </trkpt>
      <trkpt lat="47.18998" lon="5.56773">
        <ele>380</ele>
        <time>2016-10-11T01:06:11Z</time>
      </trkpt>
      <trkpt lat="47.18997" lon="5.56765">
        <ele>380</ele>
        <time>2016-10-11T01:08:11Z</time>
      </trkpt>
      <trkpt lat="47.18993" lon="5.5676">
        <ele>380</ele>
        <time>2016-10-11T01:10:11Z</time>
      </trkpt>
      <trkpt lat="47.18991" lon="5.56754">
        <ele>380</ele>
        <time>2016-10-11T01:12:11Z</time>
      </trkpt>
      <trkpt lat="47.1899" lon="5.56746">
        <ele>380</ele>
        <time>2016-10-11T01:14:11Z</time>
      </trkpt>
      <trkpt lat="47.18981" lon="5.56729">
        <ele>379</ele>
        <time>2016-10-11T01:16:11Z</time>
      </trkpt>
      <trkpt lat="47.18979" lon="5.56701">
        <ele>379</ele>
        <time>2016-10-11T01:18:11Z</time>
      </trkpt>
      <trkpt lat="47.18965" lon="5.56684">
        <ele>378</ele>
        <time>2016-10-11T01:20:11Z</time>
      </trkpt>
      <trkpt lat="47.18948" lon="5.56635">
        <ele>378</ele>
        <time>2016-10-11T01:22:11Z</time>
      </trkpt>
      <trkpt lat="47.18935" lon="5.56598">
        <ele>377</ele>
        <time>2016-10-11T01:24:11Z</time>
      </trkpt>
      <trkpt lat="47.18919" lon="5.56563">
        <ele>376</ele>
        <time>2016-10-11T01:26:11Z</time>
      </trkpt>
      <trkpt lat="47.18887" lon="5.56512">
        <ele>373</ele>
        <time>2016-10-11T01:28:11Z</time>
      </trkpt>
      <trkpt lat="47.18863" lon="5.56468">
        <ele>369</ele>
        <time>2016-10-11T01:30:11Z</time>
      </trkpt>
      <trkpt lat="47.18841" lon="5.56415">
        <ele>362</ele>
        <time>2016-10-11T01:32:11Z</time>
      </trkpt>
      <trkpt lat="47.1883" lon="5.56392">
        <ele>361</ele>
        <time>2016-10-11T01:34:11Z</time>
      </trkpt>
      <trkpt lat="47.18799" lon="5.56353">
        <ele>358</ele>
        <time>2016-10-11T01:36:11Z</time>
      </trkpt>
      <trkpt lat="47.18777" lon="5.56336">
        <ele>355</ele>
        <time>2016-10-11T01:38:11Z</time>
      </trkpt>
      <trkpt lat="47.18755" lon="5.56304">
        <ele>353</ele>
        <time>2016-10-11T01:40:11Z</time>
      </trkpt>
      <trkpt lat="47.1875" lon="5.56292">
        <ele>353</ele>
        <time>2016-10-11T01:42:11Z</time>
      </trkpt>
      <trkpt lat="47.18739" lon="5.56271">
        <ele>354</ele>
        <time>2016-10-11T01:44:11Z</time>
      </trkpt>
      <trkpt lat="47.1872" lon="5.56261">
        <ele>353</ele>
        <time>2016-10-11T01:46:11Z</time>
      </trkpt>
      <trkpt lat="47.18712" lon="5.5625">
        <ele>353</ele>
        <time>2016-10-11T01:48:11Z</time>
      </trkpt>
      <trkpt lat="47.18709" lon="5.56237">
        <ele>353</ele>
        <time>2016-10-11T01:50:11Z</time>
      </trkpt>
      <trkpt lat="47.18677" lon="5.56204">
        <ele>353</ele>
        <time>2016-10-11T01:52:11Z</time>
      </trkpt>
      <trkpt lat="47.18672" lon="5.56193">
        <ele>353</ele>
        <time>2016-10-11T01:54:11Z</time>
      </trkpt>
      <trkpt lat="47.18647" lon="5.5617">
        <ele>355</ele>
        <time>2016-10-11T01:56:11Z</time>
      </trkpt>
      <trkpt lat="47.1863" lon="5.56158">
        <ele>356</ele>
        <time>2016-10-11T01:58:11Z</time>
      </trkpt>
      <trkpt lat="47.18632" lon="5.56152">
        <ele>357</ele>
        <time>2016-10-11T02:00:11Z</time>
      </trkpt>
      <trkpt lat="47.18624" lon="5.56147">
        <ele>357</ele>
        <time>2016-10-11T02:02:11Z</time>
      </trkpt>
      <trkpt lat="47.18615" lon="5.5614">
        <ele>359</ele>
        <time>2016-10-11T02:04:11Z</time>
      </trkpt>
      <trkpt lat="47.18608" lon="5.56129">
        <ele>360</ele>
        <time>2016-10-11T02:06:11Z</time>
      </trkpt>
      <trkpt lat="47.18601" lon="5.5612">
        <ele>361</ele>
        <time>2016-10-11T02:08:11Z</time>
      </trkpt>
      <trkpt lat="47.18596" lon="5.5611">
        <ele>363</ele>
        <time>2016-10-11T02:10:11Z</time>
      </trkpt>
      <trkpt lat="47.18587" lon="5.56104">
        <ele>364</ele>
        <time>2016-10-11T02:12:11Z</time>
      </trkpt>
      <trkpt lat="47.18579" lon="5.56094">
        <ele>366</ele>
        <time>2016-10-11T02:14:11Z</time>
      </trkpt>
      <trkpt lat="47.18558" lon="5.56063">
        <ele>368</ele>
        <time>2016-10-11T02:16:11Z</time>
      </trkpt>
      <trkpt lat="47.18526" lon="5.56029">
        <ele>370</ele>
        <time>2016-10-11T02:18:11Z</time>
      </trkpt>
      <trkpt lat="47.18518" lon="5.56023">
        <ele>370</ele>
        <time>2016-10-11T02:20:11Z</time>
      </trkpt>
      <trkpt lat="47.18496" lon="5.55997">
        <ele>371</ele>
        <time>2016-10-11T02:22:11Z</time>
      </trkpt>
      <trkpt lat="47.18488" lon="5.55988">
        <ele>370</ele>
        <time>2016-10-11T02:24:11Z</time>
      </trkpt>
      <trkpt lat="47.18483" lon="5.55977">
        <ele>370</ele>
        <time>2016-10-11T02:26:11Z</time>
      </trkpt>
      <trkpt lat="47.18466" lon="5.55964">
        <ele>370</ele>
        <time>2016-10-11T02:28:11Z</time>
      </trkpt>
      <trkpt lat="47.18459" lon="5.55954">
        <ele>370</ele>
        <time>2016-10-11T02:30:11Z</time>
      </trkpt>
      <trkpt lat="47.18452" lon="5.55944">
        <ele>370</ele>
        <time>2016-10-11T02:32:11Z</time>
      </trkpt>
      <trkpt lat="47.18446" lon="5.55933">
        <ele>370</ele>
        <time>2016-10-11T02:34:11Z</time>
      </trkpt>
      <trkpt lat="47.1844" lon="5.55921">
        <ele>370</ele>
        <time>2016-10-11T02:36:11Z</time>
      </trkpt>
      <trkpt lat="47.18414" lon="5.559">
        <ele>370</ele>
        <time>2016-10-11T02:38:11Z</time>
      </trkpt>
      <trkpt lat="47.18404" lon="5.55899">
        <ele>369</ele>
        <time>2016-10-11T02:40:11Z</time>
      </trkpt>
      <trkpt lat="47.18401" lon="5.55914">
        <ele>370</ele>
        <time>2016-10-11T02:42:11Z</time>
      </trkpt>
      <trkpt lat="47.184" lon="5.5597">
        <ele>369</ele>
        <time>2016-10-11T02:44:11Z</time>
      </trkpt>
      <trkpt lat="47.18397" lon="5.55982">
        <ele>368</ele>
        <time>2016-10-11T02:46:11Z</time>
      </trkpt>
      <trkpt lat="47.1839" lon="5.55992">
        <ele>368</ele>
        <time>2016-10-11T02:48:11Z</time>
      </trkpt>
      <trkpt lat="47.18383" lon="5.56019">
        <ele>367</ele>
        <time>2016-10-11T02:50:11Z</time>
      </trkpt>
      <trkpt lat="47.18373" lon="5.56021">
        <ele>367</ele>
        <time>2016-10-11T02:52:11Z</time>
      </trkpt>
      <trkpt lat="47.18366" lon="5.56029">
        <ele>366</ele>
        <time>2016-10-11T02:54:11Z</time>
      </trkpt>
      <trkpt lat="47.18333" lon="5.56065">
        <ele>364</ele>
        <time>2016-10-11T02:56:11Z</time>
      </trkpt>
      <trkpt lat="47.18331" lon="5.56071">
        <ele>364</ele>
        <time>2016-10-11T02:58:11Z</time>
      </trkpt>
      <trkpt lat="47.18328" lon="5.56092">
        <ele>363</ele>
        <time>2016-10-11T03:00:11Z</time>
      </trkpt>
      <trkpt lat="47.18327" lon="5.561">
        <ele>362</ele>
        <time>2016-10-11T03:02:11Z</time>
      </trkpt>
      <trkpt lat="47.18327" lon="5.56107">
        <ele>362</ele>
        <time>2016-10-11T03:04:11Z</time>
      </trkpt>
      <trkpt lat="47.18321" lon="5.56119">
        <ele>362</ele>
        <time>2016-10-11T03:06:11Z</time>
      </trkpt>
      <trkpt lat="47.18315" lon="5.56129">
        <ele>362</ele>
        <time>2016-10-11T03:08:11Z</time>
      </trkpt>
      <trkpt lat="47.18304" lon="5.56161">
        <ele>361</ele>
        <time>2016-10-11T03:10:11Z</time>
      </trkpt>
      <trkpt lat="47.18297" lon="5.5617">
        <ele>361</ele>
        <time>2016-10-11T03:12:11Z</time>
      </trkpt>
      <trkpt lat="47.1829" lon="5.56181">
        <ele>361</ele>
        <time>2016-10-11T03:14:11Z</time>
      </trkpt>
      <trkpt lat="47.18275" lon="5.56198">
        <ele>361</ele>
        <time>2016-10-11T03:16:11Z</time>
      </trkpt>
      <trkpt lat="47.18249" lon="5.56216">
        <ele>360</ele>
        <time>2016-10-11T03:18:11Z</time>
      </trkpt>
      <trkpt lat="47.18241" lon="5.56224">
        <ele>360</ele>
        <time>2016-10-11T03:20:11Z</time>
      </trkpt>
      <trkpt lat="47.18233" lon="5.56233">
        <ele>359</ele>
        <time>2016-10-11T03:22:11Z</time>
      </trkpt>
      <trkpt lat="47.18225" lon="5.5624">
        <ele>359</ele>
        <time>2016-10-11T03:24:11Z</time>
      </trkpt>
      <trkpt lat="47.18217" lon="5.56245">
        <ele>359</ele>
        <time>2016-10-11T03:26:11Z</time>
      </trkpt>
      <trkpt lat="47.1819" lon="5.56266">
        <ele>358</ele>
        <time>2016-10-11T03:28:11Z</time>
      </trkpt>
      <trkpt lat="47.18171" lon="5.5627">
        <ele>357</ele>
        <time>2016-10-11T03:30:11Z</time>
      </trkpt>
      <trkpt lat="47.18162" lon="5.56269">
        <ele>358</ele>
        <time>2016-10-11T03:32:11Z</time>
      </trkpt>
      <trkpt lat="47.18153" lon="5.56277">
        <ele>358</ele>
        <time>2016-10-11T03:34:11Z</time>
      </trkpt>
      <trkpt lat="47.18143" lon="5.56278">
        <ele>358</ele>
        <time>2016-10-11T03:36:11Z</time>
      </trkpt>
      <trkpt lat="47.18134" lon="5.56282">
        <ele>358</ele>
        <time>2016-10-11T03:38:11Z</time>
      </trkpt>
      <trkpt lat="47.18128" lon="5.56292">
        <ele>358</ele>
        <time>2016-10-11T03:40:11Z</time>
      </trkpt>
      <trkpt lat="47.18119" lon="5.56349">
        <ele>358</ele>
        <time>2016-10-11T03:42:11Z</time>
      </trkpt>
      <trkpt lat="47.18114" lon="5.56361">
        <ele>359</ele>
        <time>2016-10-11T03:44:11Z</time>
      </trkpt>
      <trkpt lat="47.18116" lon="5.56389">
        <ele>359</ele>
        <time>2016-10-11T03:46:11Z</time>
      </trkpt>
      <trkpt lat="47.18107" lon="5.56414">
        <ele>360</ele>
        <time>2016-10-11T03:48:11Z</time>
      </trkpt>
      <trkpt lat="47.18111" lon="5.56486">
        <ele>363</ele>
        <time>2016-10-11T03:50:11Z</time>
      </trkpt>
      <trkpt lat="47.18116" lon="5.565">
        <ele>364</ele>
        <time>2016-10-11T03:52:11Z</time>
      </trkpt>
      <trkpt lat="47.18117" lon="5.56528">
        <ele>365</ele>
        <time>2016-10-11T03:54:11Z</time>
      </trkpt>
      <trkpt lat="47.1812" lon="5.56537">
        <ele>365</ele>
        <time>2016-10-11T03:56:11Z</time>
      </trkpt>
      <trkpt lat="47.18124" lon="5.56567">
        <ele>366</ele>
        <time>2016-10-11T03:58:11Z</time>
      </trkpt>
      <trkpt lat="47.18121" lon="5.56581">
        <ele>367</ele>
        <time>2016-10-11T04:00:11Z</time>
      </trkpt>
      <trkpt lat="47.18124" lon="5.56607">
        <ele>367</ele>
        <time>2016-10-11T04:02:11Z</time>
      </trkpt>
      <trkpt lat="47.1813" lon="5.5662">
        <ele>367</ele>
        <time>2016-10-11T04:04:11Z</time>
      </trkpt>
      <trkpt lat="47.18132" lon="5.56633">
        <ele>368</ele>
        <time>2016-10-11T04:06:11Z</time>
      </trkpt>
      <trkpt lat="47.18131" lon="5.56646">
        <ele>368</ele>
        <time>2016-10-11T04:08:11Z</time>
      </trkpt>
      <trkpt lat="47.18143" lon="5.56702">
        <ele>368</ele>
        <time>2016-10-11T04:10:11Z</time>
      </trkpt>
      <trkpt lat="47.18155" lon="5.56754">
        <ele>368</ele>
        <time>2016-10-11T04:12:11Z</time>
      </trkpt>
      <trkpt lat="47.18158" lon="5.56767">
        <ele>368</ele>
        <time>2016-10-11T04:14:11Z</time>
      </trkpt>
      <trkpt lat="47.18162" lon="5.5677">
        <ele>368</ele>
        <time>2016-10-11T04:16:11Z</time>
      </trkpt>
      <trkpt lat="47.18167" lon="5.56773">
        <ele>368</ele>
        <time>2016-10-11T04:18:11Z</time>
      </trkpt>
      <trkpt lat="47.18172" lon="5.568">
        <ele>367</ele>
        <time>2016-10-11T04:20:11Z</time>
      </trkpt>
      <trkpt lat="47.18171" lon="5.56813">
        <ele>366</ele>
        <time>2016-10-11T04:22:11Z</time>
      </trkpt>
      <trkpt lat="47.1818" lon="5.56853">
        <ele>363</ele>
        <time>2016-10-11T04:24:11Z</time>
      </trkpt>
      <trkpt lat="47.18184" lon="5.56865">
        <ele>362</ele>
        <time>2016-10-11T04:26:11Z</time>
      </trkpt>
      <trkpt lat="47.18187" lon="5.56879">
        <ele>361</ele>
        <time>2016-10-11T04:28:11Z</time>
      </trkpt>
      <trkpt lat="47.18189" lon="5.56892">
        <ele>360</ele>
        <time>2016-10-11T04:30:11Z</time>
      </trkpt>
      <trkpt lat="47.18194" lon="5.56905">
        <ele>358</ele>
        <time>2016-10-11T04:32:11Z</time>
      </trkpt>
      <trkpt lat="47.18204" lon="5.56928">
        <ele>356</ele>
        <time>2016-10-11T04:34:11Z</time>
      </trkpt>
      <trkpt lat="47.18211" lon="5.56937">
        <ele>355</ele>
        <time>2016-10-11T04:36:11Z</time>
      </trkpt>
      <trkpt lat="47.1824" lon="5.56977">
        <ele>351</ele>
        <time>2016-10-11T04:38:11Z</time>
      </trkpt>
      <trkpt lat="47.18253" lon="5.5703">
        <ele>344</ele>
        <time>2016-10-11T04:40:11Z</time>
      </trkpt>
      <trkpt lat="47.18257" lon="5.57058">
        <ele>339</ele>
        <time>2016-10-11T04:42:11Z</time>
      </trkpt>
      <trkpt lat="47.18263" lon="5.57062">
        <ele>337</ele>
        <time>2016-10-11T04:44:11Z</time>
      </trkpt>
      <trkpt lat="47.1827" lon="5.57057">
        <ele>337</ele>
        <time>2016-10-11T04:46:11Z</time>
      </trkpt>
      <trkpt lat="47.18273" lon="5.5706">
        <ele>336</ele>
        <time>2016-10-11T04:48:11Z</time>
      </trkpt>
      <trkpt lat="47.18277" lon="5.57055">
        <ele>336</ele>
        <time>2016-10-11T04:50:11Z</time>
      </trkpt>
      <trkpt lat="47.18281" lon="5.57055">
        <ele>335</ele>
        <time>2016-10-11T04:52:11Z</time>
      </trkpt>
      <trkpt lat="47.18284" lon="5.57052">
        <ele>335</ele>
        <time>2016-10-11T04:54:11Z</time>
      </trkpt>
      <trkpt lat="47.18285" lon="5.57046">
        <ele>335</ele>
        <time>2016-10-11T04:56:11Z</time>
      </trkpt>
      <trkpt lat="47.18288" lon="5.57043">
        <ele>335</ele>
        <time>2016-10-11T04:58:11Z</time>
      </trkpt>
      <trkpt lat="47.18292" lon="5.57044">
        <ele>334</ele>
        <time>2016-10-11T05:00:11Z</time>
      </trkpt>
      <trkpt lat="47.18292" lon="5.57052">
        <ele>333</ele>
        <time>2016-10-11T05:02:11Z</time>
      </trkpt>
      <trkpt lat="47.18279" lon="5.57107">
        <ele>325</ele>
        <time>2016-10-11T05:04:11Z</time>
      </trkpt>
      <trkpt lat="47.18274" lon="5.57164">
        <ele>314</ele>
        <time>2016-10-11T05:06:11Z</time>
      </trkpt>
      <trkpt lat="47.18267" lon="5.57185">
        <ele>313</ele>
        <time>2016-10-11T05:08:11Z</time>
      </trkpt>
      <trkpt lat="47.18268" lon="5.57192">
        <ele>311</ele>
        <time>2016-10-11T05:10:11Z</time>
      </trkpt>
      <trkpt lat="47.18272" lon="5.57195">
        <ele>310</ele>
        <time>2016-10-11T05:12:11Z</time>
      </trkpt>
      <trkpt lat="47.18277" lon="5.57191">
        <ele>309</ele>
        <time>2016-10-11T05:14:11Z</time>
      </trkpt>
      <trkpt lat="47.18287" lon="5.57172">
        <ele>309</ele>
        <time>2016-10-11T05:16:11Z</time>
      </trkpt>
      <trkpt lat="47.18288" lon="5.57165">
        <ele>310</ele>
        <time>2016-10-11T05:18:11Z</time>
      </trkpt>
      <trkpt lat="47.18292" lon="5.57162">
        <ele>310</ele>
        <time>2016-10-11T05:20:11Z</time>
      </trkpt>
      <trkpt lat="47.18297" lon="5.57158">
        <ele>310</ele>
        <time>2016-10-11T05:22:11Z</time>
      </trkpt>
      <trkpt lat="47.18301" lon="5.57154">
        <ele>310</ele>
        <time>2016-10-11T05:24:11Z</time>
      </trkpt>
      <trkpt lat="47.18316" lon="5.57136">
        <ele>311</ele>
        <time>2016-10-11T05:26:11Z</time>
      </trkpt>
      <trkpt lat="47.18322" lon="5.57125">
        <ele>312</ele>
        <time>2016-10-11T05:28:11Z</time>
      </trkpt>
      <trkpt lat="47.18344" lon="5.571">
        <ele>315</ele>
        <time>2016-10-11T05:30:11Z</time>
      </trkpt>
      <trkpt lat="47.18376" lon="5.57071">
        <ele>315</ele>
        <time>2016-10-11T05:32:11Z</time>
      </trkpt>
      <trkpt lat="47.18387" lon="5.57048">
        <ele>315</ele>
        <time>2016-10-11T05:34:11Z</time>
      </trkpt>
      <trkpt lat="47.18392" lon="5.57035">
        <ele>315</ele>
        <time>2016-10-11T05:36:11Z</time>
      </trkpt>
      <trkpt lat="47.18406" lon="5.57019">
        <ele>314</ele>
        <time>2016-10-11T05:38:11Z</time>
      </trkpt>
      <trkpt lat="47.18413" lon="5.5703">
        <ele>312</ele>
        <time>2016-10-11T05:40:11Z</time>
      </trkpt>
      <trkpt lat="47.18416" lon="5.57042">
        <ele>310</ele>
        <time>2016-10-11T05:42:11Z</time>
      </trkpt>
      <trkpt lat="47.18415" lon="5.57056">
        <ele>309</ele>
        <time>2016-10-11T05:44:11Z</time>
      </trkpt>
      <trkpt lat="47.18416" lon="5.57069">
        <ele>308</ele>
        <time>2016-10-11T05:46:11Z</time>
      </trkpt>
      <trkpt lat="47.18427" lon="5.57108">
        <ele>307</ele>
        <time>2016-10-11T05:48:11Z</time>
      </trkpt>
      <trkpt lat="47.18433" lon="5.57136">
        <ele>305</ele>
        <time>2016-10-11T05:50:11Z</time>
      </trkpt>
      <trkpt lat="47.18439" lon="5.57147">
        <ele>306</ele>
        <time>2016-10-11T05:52:11Z</time>
      </trkpt>
      <trkpt lat="47.18459" lon="5.57209">
        <ele>303</ele>
        <time>2016-10-11T05:54:11Z</time>
      </trkpt>
      <trkpt lat="47.18469" lon="5.57247">
        <ele>301</ele>
        <time>2016-10-11T05:56:11Z</time>
      </trkpt>
      <trkpt lat="47.18468" lon="5.57261">
        <ele>298</ele>
        <time>2016-10-11T05:58:11Z</time>
      </trkpt>
      <trkpt lat="47.18471" lon="5.57274">
        <ele>297</ele>
        <time>2016-10-11T06:00:11Z</time>
      </trkpt>
      <trkpt lat="47.18475" lon="5.57287">
        <ele>297</ele>
        <time>2016-10-11T06:02:11Z</time>
      </trkpt>
      <trkpt lat="47.18493" lon="5.57334">
        <ele>296</ele>
        <time>2016-10-11T06:04:11Z</time>
      </trkpt>
      <trkpt lat="47.18501" lon="5.57373">
        <ele>293</ele>
        <time>2016-10-11T06:06:11Z</time>
      </trkpt>
      <trkpt lat="47.18504" lon="5.57386">
        <ele>292</ele>
        <time>2016-10-11T06:08:11Z</time>
      </trkpt>
      <trkpt lat="47.1851" lon="5.57413">
        <ele>290</ele>
        <time>2016-10-11T06:10:11Z</time>
      </trkpt>
      <trkpt lat="47.18527" lon="5.57461">
        <ele>289</ele>
        <time>2016-10-11T06:12:11Z</time>
      </trkpt>
      <trkpt lat="47.18525" lon="5.57475">
        <ele>287</ele>
        <time>2016-10-11T06:14:11Z</time>
      </trkpt>
      <trkpt lat="47.18532" lon="5.57485">
        <ele>287</ele>
        <time>2016-10-11T06:16:11Z</time>
      </trkpt>
      <trkpt lat="47.18546" lon="5.57502">
        <ele>287</ele>
        <time>2016-10-11T06:18:11Z</time>
      </trkpt>
      <trkpt lat="47.18564" lon="5.57511">
        <ele>290</ele>
        <time>2016-10-11T06:20:11Z</time>
      </trkpt>
      <trkpt lat="47.1857" lon="5.57521">
        <ele>290</ele>
        <time>2016-10-11T06:22:11Z</time>
      </trkpt>
      <trkpt lat="47.18597" lon="5.57534">
        <ele>293</ele>
        <time>2016-10-11T06:24:11Z</time>
      </trkpt>
      <trkpt lat="47.18601" lon="5.5754">
        <ele>293</ele>
        <time>2016-10-11T06:26:11Z</time>
      </trkpt>
      <trkpt lat="47.18602" lon="5.57547">
        <ele>293</ele>
        <time>2016-10-11T06:28:11Z</time>
      </trkpt>
      <trkpt lat="47.186" lon="5.57549">
        <ele>293</ele>
        <time>2016-10-11T06:30:11Z</time>
      </trkpt>
      <trkpt lat="47.18598" lon="5.57551">
        <ele>292</ele>
        <time>2016-10-11T06:32:11Z</time>
      </trkpt>
      <trkpt lat="47.18598" lon="5.57559">
        <ele>292</ele>
        <time>2016-10-11T06:34:11Z</time>
      </trkpt>
      <trkpt lat="47.18597" lon="5.57582">
        <ele>291</ele>
        <time>2016-10-11T06:36:11Z</time>
      </trkpt>
      <trkpt lat="47.18587" lon="5.57588">
        <ele>290</ele>
        <time>2016-10-11T06:38:11Z</time>
      </trkpt>
      <trkpt lat="47.18579" lon="5.57595">
        <ele>290</ele>
        <time>2016-10-11T06:40:11Z</time>
      </trkpt>
      <trkpt lat="47.18575" lon="5.57597">
        <ele>290</ele>
        <time>2016-10-11T06:42:11Z</time>
      </trkpt>
      <trkpt lat="47.18554" lon="5.57594">
        <ele>289</ele>
        <time>2016-10-11T06:44:11Z</time>
      </trkpt>
      <trkpt lat="47.18544" lon="5.57594">
        <ele>289</ele>
        <time>2016-10-11T06:46:11Z</time>
      </trkpt>
      <trkpt lat="47.18538" lon="5.57605">
        <ele>290</ele>
        <time>2016-10-11T06:48:11Z</time>
      </trkpt>
      <trkpt lat="47.18519" lon="5.57607">
        <ele>290</ele>
        <time>2016-10-11T06:50:11Z</time>
      </trkpt>
      <trkpt lat="47.1851" lon="5.57611">
        <ele>290</ele>
        <time>2016-10-11T06:52:11Z</time>
      </trkpt>
      <trkpt lat="47.185" lon="5.57611">
        <ele>290</ele>
        <time>2016-10-11T06:54:11Z</time>
      </trkpt>
      <trkpt lat="47.18491" lon="5.5761">
        <ele>289</ele>
        <time>2016-10-11T06:56:11Z</time>
      </trkpt>
      <trkpt lat="47.18482" lon="5.57612">
        <ele>288</ele>
        <time>2016-10-11T06:58:11Z</time>
      </trkpt>
      <trkpt lat="47.18463" lon="5.57618">
        <ele>286</ele>
        <time>2016-10-11T07:00:11Z</time>
      </trkpt>
      <trkpt lat="47.18453" lon="5.57619">
        <ele>285</ele>
        <time>2016-10-11T07:02:11Z</time>
      </trkpt>
      <trkpt lat="47.18425" lon="5.57626">
        <ele>282</ele>
        <time>2016-10-11T07:04:11Z</time>
      </trkpt>
      <trkpt lat="47.18407" lon="5.57624">
        <ele>279</ele>
        <time>2016-10-11T07:06:11Z</time>
      </trkpt>
      <trkpt lat="47.18397" lon="5.57626">
        <ele>277</ele>
        <time>2016-10-11T07:08:11Z</time>
      </trkpt>
      <trkpt lat="47.18368" lon="5.57635">
        <ele>272</ele>
        <time>2016-10-11T07:10:11Z</time>
      </trkpt>
      <trkpt lat="47.18363" lon="5.57638">
        <ele>271</ele>
        <time>2016-10-11T07:12:11Z</time>
      </trkpt>
      <trkpt lat="47.1836" lon="5.57644">
        <ele>271</ele>
        <time>2016-10-11T07:14:11Z</time>
      </trkpt>
      <trkpt lat="47.18359" lon="5.5765">
        <ele>271</ele>
        <time>2016-10-11T07:16:11Z</time>
      </trkpt>
      <trkpt lat="47.18358" lon="5.57659">
        <ele>271</ele>
        <time>2016-10-11T07:18:11Z</time>
      </trkpt>
      <trkpt lat="47.18368" lon="5.57691">
        <ele>273</ele>
        <time>2016-10-11T07:20:11Z</time>
      </trkpt>
      <trkpt lat="47.18376" lon="5.57716">
        <ele>274</ele>
        <time>2016-10-11T07:22:11Z</time>
      </trkpt>
      <trkpt lat="47.1838" lon="5.57786">
        <ele>273</ele>
        <time>2016-10-11T07:24:11Z</time>
      </trkpt>
      <trkpt lat="47.18376" lon="5.57812">
        <ele>271</ele>
        <time>2016-10-11T07:26:11Z</time>
      </trkpt>
      <trkpt lat="47.18365" lon="5.5786">
        <ele>268</ele>
        <time>2016-10-11T07:28:11Z</time>
      </trkpt>
      <trkpt lat="47.18354" lon="5.57884">
        <ele>265</ele>
        <time>2016-10-11T07:30:11Z</time>
      </trkpt>
      <trkpt lat="47.1835" lon="5.5789">
        <ele>265</ele>
        <time>2016-10-11T07:32:11Z</time>
      </trkpt>
      <trkpt lat="47.18329" lon="5.57928">
        <ele>261</ele>
        <time>2016-10-11T07:34:11Z</time>
      </trkpt>
      <trkpt lat="47.18326" lon="5.57935">
        <ele>260</ele>
        <time>2016-10-11T07:36:11Z</time>
      </trkpt>
      <trkpt lat="47.18322" lon="5.5794">
        <ele>259</ele>
        <time>2016-10-11T07:38:11Z</time>
      </trkpt>
      <trkpt lat="47.18298" lon="5.57997">
        <ele>254</ele>
        <time>2016-10-11T07:40:11Z</time>
      </trkpt>
      <trkpt lat="47.18262" lon="5.5805">
        <ele>250</ele>
        <time>2016-10-11T07:42:11Z</time>
      </trkpt>
      <trkpt lat="47.18232" lon="5.58073">
        <ele>249</ele>
        <time>2016-10-11T07:44:11Z</time>
      </trkpt>
      <trkpt lat="47.18195" lon="5.58104">
        <ele>248</ele>
        <time>2016-10-11T07:46:11Z</time>
      </trkpt>
      <trkpt lat="47.18187" lon="5.58113">
        <ele>248</ele>
        <time>2016-10-11T07:48:11Z</time>
      </trkpt>
      <trkpt lat="47.18181" lon="5.58133">
        <ele>248</ele>
        <time>2016-10-11T07:50:11Z</time>
      </trkpt>
      <trkpt lat="47.18171" lon="5.5815">
        <ele>248</ele>
        <time>2016-10-11T07:52:11Z</time>
      </trkpt>
      <trkpt lat="47.18155" lon="5.58187">
        <ele>247</ele>
        <time>2016-10-11T07:54:11Z</time>
      </trkpt>
      <trkpt lat="47.18129" lon="5.58236">
        <ele>245</ele>
        <time>2016-10-11T07:56:11Z</time>
      </trkpt>
      <trkpt lat="47.18122" lon="5.58247">
        <ele>245</ele>
        <time>2016-10-11T07:58:11Z</time>
      </trkpt>
      <trkpt lat="47.18115" lon="5.58257">
        <ele>244</ele>
        <time>2016-10-11T08:00:11Z</time>
      </trkpt>
      <trkpt lat="47.18095" lon="5.58293">
        <ele>243</ele>
        <time>2016-10-11T08:02:11Z</time>
      </trkpt>
      <trkpt lat="47.18088" lon="5.58302">
        <ele>242</ele>
        <time>2016-10-11T08:04:11Z</time>
      </trkpt>
      <trkpt lat="47.18074" lon="5.5827">
        <ele>242</ele>
        <time>2016-10-11T08:06:11Z</time>
      </trkpt>
      <trkpt lat="47.18039" lon="5.58207">
        <ele>241</ele>
        <time>2016-10-11T08:08:11Z</time>
      </trkpt>
    </trkseg>
  </trk>
</gpx>